sensor_id;sensor_type;location;lat;lon;timestamp;P1;durP1;ratioP1;P2;durP2;ratioP2
73650;SDS011;61944;52.538;6.108;2023-03-14T00:00:52;22.38;;;5.00;;
73650;SDS011;61944;52.538;6.108;2023-03-14T00:03:17;16.20;;;5.30;;
73650;SDS011;61944;52.538;6.108;2023-03-14T00:05:43;24.88;;;6.43;;
73650;SDS011;61944;52.538;6.108;2023-03-14T00:08:08;18.25;;;5.38;;
73650;SDS011;61944;52.538;6.108;2023-03-14T00:10:35;17.90;;;4.88;;
73650;SDS011;61944;52.538;6.108;2023-03-14T00:13:01;24.13;;;5.32;;
73650;SDS011;61944;52.538;6.108;2023-03-14T00:15:27;22.67;;;6.53;;
73650;SDS011;61944;52.538;6.108;2023-03-14T00:17:52;23.05;;;6.43;;
73650;SDS011;61944;52.538;6.108;2023-03-14T00:20:17;20.23;;;6.35;;
73650;SDS011;61944;52.538;6.108;2023-03-14T00:22:43;15.57;;;6.10;;
73650;SDS011;61944;52.538;6.108;2023-03-14T00:25:09;16.38;;;5.57;;
73650;SDS011;61944;52.538;6.108;2023-03-14T00:27:36;27.67;;;8.32;;
73650;SDS011;61944;52.538;6.108;2023-03-14T00:30:02;21.30;;;8.57;;
73650;SDS011;61944;52.538;6.108;2023-03-14T00:32:27;19.55;;;5.50;;
73650;SDS011;61944;52.538;6.108;2023-03-14T00:34:53;19.77;;;5.35;;
73650;SDS011;61944;52.538;6.108;2023-03-14T00:37:18;16.77;;;6.47;;
73650;SDS011;61944;52.538;6.108;2023-03-14T00:39:44;23.80;;;7.60;;
73650;SDS011;61944;52.538;6.108;2023-03-14T00:42:09;23.60;;;5.82;;
73650;SDS011;61944;52.538;6.108;2023-03-14T00:44:35;17.17;;;6.28;;
73650;SDS011;61944;52.538;6.108;2023-03-14T00:47:00;22.35;;;6.13;;
73650;SDS011;61944;52.538;6.108;2023-03-14T00:49:25;16.58;;;5.53;;
73650;SDS011;61944;52.538;6.108;2023-03-14T00:51:51;20.20;;;4.97;;
73650;SDS011;61944;52.538;6.108;2023-03-14T00:54:17;17.55;;;4.68;;
73650;SDS011;61944;52.538;6.108;2023-03-14T00:56:43;16.70;;;5.43;;
73650;SDS011;61944;52.538;6.108;2023-03-14T00:59:08;20.50;;;4.93;;
73650;SDS011;61944;52.538;6.108;2023-03-14T01:01:34;17.77;;;6.13;;
73650;SDS011;61944;52.538;6.108;2023-03-14T01:03:59;17.35;;;5.30;;
73650;SDS011;61944;52.538;6.108;2023-03-14T01:06:26;19.45;;;5.35;;
73650;SDS011;61944;52.538;6.108;2023-03-14T01:08:53;24.80;;;5.75;;
73650;SDS011;61944;52.538;6.108;2023-03-14T01:11:29;15.43;;;5.22;;
73650;SDS011;61944;52.538;6.108;2023-03-14T01:13:56;24.58;;;6.35;;
73650;SDS011;61944;52.538;6.108;2023-03-14T01:16:23;26.40;;;6.03;;
73650;SDS011;61944;52.538;6.108;2023-03-14T01:18:51;15.98;;;5.50;;
73650;SDS011;61944;52.538;6.108;2023-03-14T01:21:18;19.55;;;6.88;;
73650;SDS011;61944;52.538;6.108;2023-03-14T01:23:46;20.67;;;5.10;;
73650;SDS011;61944;52.538;6.108;2023-03-14T01:26:13;13.30;;;4.65;;
73650;SDS011;61944;52.538;6.108;2023-03-14T01:28:41;21.17;;;4.20;;
73650;SDS011;61944;52.538;6.108;2023-03-14T01:31:07;16.10;;;4.97;;
73650;SDS011;61944;52.538;6.108;2023-03-14T01:33:34;18.27;;;6.38;;
73650;SDS011;61944;52.538;6.108;2023-03-14T01:36:00;25.40;;;6.30;;
73650;SDS011;61944;52.538;6.108;2023-03-14T01:38:30;25.80;;;5.65;;
73650;SDS011;61944;52.538;6.108;2023-03-14T01:40:57;25.17;;;4.75;;
73650;SDS011;61944;52.538;6.108;2023-03-14T01:43:22;15.05;;;3.80;;
73650;SDS011;61944;52.538;6.108;2023-03-14T01:48:23;17.90;;;6.07;;
73650;SDS011;61944;52.538;6.108;2023-03-14T01:50:56;19.38;;;5.13;;
73650;SDS011;61944;52.538;6.108;2023-03-14T01:53:23;14.15;;;5.10;;
73650;SDS011;61944;52.538;6.108;2023-03-14T01:55:49;21.50;;;4.38;;
73650;SDS011;61944;52.538;6.108;2023-03-14T01:58:17;14.43;;;4.28;;
73650;SDS011;61944;52.538;6.108;2023-03-14T02:00:45;17.00;;;4.57;;
73650;SDS011;61944;52.538;6.108;2023-03-14T02:03:11;22.42;;;4.45;;
73650;SDS011;61944;52.538;6.108;2023-03-14T02:05:41;12.02;;;3.80;;
73650;SDS011;61944;52.538;6.108;2023-03-14T02:08:08;15.50;;;4.25;;
73650;SDS011;61944;52.538;6.108;2023-03-14T02:10:39;14.38;;;3.78;;
73650;SDS011;61944;52.538;6.108;2023-03-14T02:13:08;9.25;;;3.85;;
73650;SDS011;61944;52.538;6.108;2023-03-14T02:15:35;12.82;;;3.83;;
73650;SDS011;61944;52.538;6.108;2023-03-14T02:18:01;17.33;;;3.33;;
73650;SDS011;61944;52.538;6.108;2023-03-14T02:22:59;13.43;;;3.70;;
73650;SDS011;61944;52.538;6.108;2023-03-14T02:28:03;14.32;;;4.00;;
73650;SDS011;61944;52.538;6.108;2023-03-14T02:30:30;11.65;;;5.07;;
73650;SDS011;61944;52.538;6.108;2023-03-14T02:33:04;12.23;;;3.90;;
73650;SDS011;61944;52.538;6.108;2023-03-14T02:35:40;14.00;;;4.93;;
73650;SDS011;61944;52.538;6.108;2023-03-14T02:38:23;14.88;;;4.10;;
73650;SDS011;61944;52.538;6.108;2023-03-14T02:40:54;12.65;;;3.67;;
73650;SDS011;61944;52.538;6.108;2023-03-14T02:43:19;14.77;;;4.68;;
73650;SDS011;61944;52.538;6.108;2023-03-14T02:45:45;13.27;;;4.60;;
73650;SDS011;61944;52.538;6.108;2023-03-14T02:48:25;11.57;;;3.85;;
73650;SDS011;61944;52.538;6.108;2023-03-14T02:50:57;15.95;;;4.32;;
73650;SDS011;61944;52.538;6.108;2023-03-14T02:53:28;11.38;;;4.30;;
73650;SDS011;61944;52.538;6.108;2023-03-14T02:55:59;10.60;;;3.67;;
73650;SDS011;61944;52.538;6.108;2023-03-14T02:58:27;11.77;;;4.38;;
73650;SDS011;61944;52.538;6.108;2023-03-14T03:00:53;13.50;;;4.25;;
73650;SDS011;61944;52.538;6.108;2023-03-14T03:03:18;13.70;;;4.28;;
73650;SDS011;61944;52.538;6.108;2023-03-14T03:05:51;11.77;;;4.55;;
73650;SDS011;61944;52.538;6.108;2023-03-14T03:10:43;13.93;;;4.65;;
73650;SDS011;61944;52.538;6.108;2023-03-14T03:13:09;11.82;;;3.78;;
73650;SDS011;61944;52.538;6.108;2023-03-14T03:15:34;24.58;;;4.40;;
73650;SDS011;61944;52.538;6.108;2023-03-14T03:18:00;20.33;;;4.00;;
73650;SDS011;61944;52.538;6.108;2023-03-14T03:20:25;16.75;;;4.07;;
73650;SDS011;61944;52.538;6.108;2023-03-14T03:22:51;14.85;;;4.60;;
73650;SDS011;61944;52.538;6.108;2023-03-14T03:25:16;20.38;;;4.15;;
73650;SDS011;61944;52.538;6.108;2023-03-14T03:27:41;16.05;;;4.45;;
73650;SDS011;61944;52.538;6.108;2023-03-14T03:30:07;11.10;;;3.53;;
73650;SDS011;61944;52.538;6.108;2023-03-14T03:32:33;9.50;;;3.50;;
73650;SDS011;61944;52.538;6.108;2023-03-14T03:34:59;13.30;;;3.28;;
73650;SDS011;61944;52.538;6.108;2023-03-14T03:37:24;10.48;;;3.47;;
73650;SDS011;61944;52.538;6.108;2023-03-14T03:39:50;11.48;;;3.83;;
73650;SDS011;61944;52.538;6.108;2023-03-14T03:42:16;14.75;;;3.53;;
73650;SDS011;61944;52.538;6.108;2023-03-14T03:44:42;10.25;;;3.50;;
73650;SDS011;61944;52.538;6.108;2023-03-14T03:47:07;12.93;;;3.95;;
73650;SDS011;61944;52.538;6.108;2023-03-14T03:49:33;10.82;;;3.60;;
73650;SDS011;61944;52.538;6.108;2023-03-14T03:51:59;13.70;;;3.78;;
73650;SDS011;61944;52.538;6.108;2023-03-14T03:54:24;15.93;;;4.25;;
73650;SDS011;61944;52.538;6.108;2023-03-14T03:56:50;13.93;;;5.07;;
73650;SDS011;61944;52.538;6.108;2023-03-14T03:59:16;11.38;;;5.63;;
73650;SDS011;61944;52.538;6.108;2023-03-14T04:01:41;11.63;;;4.63;;
73650;SDS011;61944;52.538;6.108;2023-03-14T04:04:06;12.10;;;4.78;;
73650;SDS011;61944;52.538;6.108;2023-03-14T04:06:32;13.55;;;5.45;;
73650;SDS011;61944;52.538;6.108;2023-03-14T04:08:58;9.00;;;4.53;;
73650;SDS011;61944;52.538;6.108;2023-03-14T04:11:23;15.73;;;5.28;;
73650;SDS011;61944;52.538;6.108;2023-03-14T04:13:49;16.42;;;8.10;;
73650;SDS011;61944;52.538;6.108;2023-03-14T04:16:16;12.85;;;4.90;;
73650;SDS011;61944;52.538;6.108;2023-03-14T04:18:43;16.85;;;5.13;;
73650;SDS011;61944;52.538;6.108;2023-03-14T04:21:09;9.13;;;3.97;;
73650;SDS011;61944;52.538;6.108;2023-03-14T04:23:34;12.75;;;5.40;;
73650;SDS011;61944;52.538;6.108;2023-03-14T04:25:59;11.50;;;4.47;;
73650;SDS011;61944;52.538;6.108;2023-03-14T04:28:25;17.70;;;5.25;;
73650;SDS011;61944;52.538;6.108;2023-03-14T04:30:50;14.68;;;4.43;;
73650;SDS011;61944;52.538;6.108;2023-03-14T04:33:16;14.18;;;5.88;;
73650;SDS011;61944;52.538;6.108;2023-03-14T04:35:44;13.98;;;5.18;;
73650;SDS011;61944;52.538;6.108;2023-03-14T04:38:11;19.45;;;5.63;;
73650;SDS011;61944;52.538;6.108;2023-03-14T04:40:37;13.48;;;5.55;;
73650;SDS011;61944;52.538;6.108;2023-03-14T04:43:04;15.10;;;6.25;;
73650;SDS011;61944;52.538;6.108;2023-03-14T04:45:29;14.23;;;4.63;;
73650;SDS011;61944;52.538;6.108;2023-03-14T04:47:54;23.60;;;7.10;;
73650;SDS011;61944;52.538;6.108;2023-03-14T04:50:20;14.90;;;4.75;;
73650;SDS011;61944;52.538;6.108;2023-03-14T04:52:45;13.85;;;4.82;;
73650;SDS011;61944;52.538;6.108;2023-03-14T04:55:10;18.70;;;5.25;;
73650;SDS011;61944;52.538;6.108;2023-03-14T04:57:36;10.70;;;4.47;;
73650;SDS011;61944;52.538;6.108;2023-03-14T05:00:02;11.38;;;4.45;;
73650;SDS011;61944;52.538;6.108;2023-03-14T05:02:31;20.98;;;5.32;;
73650;SDS011;61944;52.538;6.108;2023-03-14T05:04:56;11.23;;;3.85;;
73650;SDS011;61944;52.538;6.108;2023-03-14T05:07:22;17.65;;;4.55;;
73650;SDS011;61944;52.538;6.108;2023-03-14T05:09:47;21.15;;;4.28;;
73650;SDS011;61944;52.538;6.108;2023-03-14T05:12:12;16.90;;;4.45;;
73650;SDS011;61944;52.538;6.108;2023-03-14T05:14:38;12.77;;;4.03;;
73650;SDS011;61944;52.538;6.108;2023-03-14T05:17:04;13.20;;;4.38;;
73650;SDS011;61944;52.538;6.108;2023-03-14T05:19:29;9.43;;;3.97;;
73650;SDS011;61944;52.538;6.108;2023-03-14T05:21:55;13.13;;;4.55;;
73650;SDS011;61944;52.538;6.108;2023-03-14T05:24:21;14.45;;;4.00;;
73650;SDS011;61944;52.538;6.108;2023-03-14T05:26:46;14.65;;;3.42;;
73650;SDS011;61944;52.538;6.108;2023-03-14T05:29:11;14.30;;;3.88;;
73650;SDS011;61944;52.538;6.108;2023-03-14T05:31:37;12.73;;;3.85;;
73650;SDS011;61944;52.538;6.108;2023-03-14T05:34:02;6.95;;;3.45;;
73650;SDS011;61944;52.538;6.108;2023-03-14T05:36:28;13.52;;;4.70;;
73650;SDS011;61944;52.538;6.108;2023-03-14T05:38:53;14.82;;;4.20;;
73650;SDS011;61944;52.538;6.108;2023-03-14T05:41:18;14.00;;;4.07;;
73650;SDS011;61944;52.538;6.108;2023-03-14T05:43:44;21.58;;;5.68;;
73650;SDS011;61944;52.538;6.108;2023-03-14T05:46:09;13.50;;;4.90;;
73650;SDS011;61944;52.538;6.108;2023-03-14T05:48:34;14.65;;;4.70;;
73650;SDS011;61944;52.538;6.108;2023-03-14T05:51:00;14.63;;;4.38;;
73650;SDS011;61944;52.538;6.108;2023-03-14T05:53:25;11.25;;;4.22;;
73650;SDS011;61944;52.538;6.108;2023-03-14T05:55:54;13.93;;;4.60;;
73650;SDS011;61944;52.538;6.108;2023-03-14T05:58:23;12.57;;;4.68;;
73650;SDS011;61944;52.538;6.108;2023-03-14T06:00:48;11.93;;;4.00;;
73650;SDS011;61944;52.538;6.108;2023-03-14T06:03:14;9.68;;;4.75;;
73650;SDS011;61944;52.538;6.108;2023-03-14T06:05:39;15.90;;;4.90;;
73650;SDS011;61944;52.538;6.108;2023-03-14T06:08:05;14.73;;;4.57;;
73650;SDS011;61944;52.538;6.108;2023-03-14T06:10:30;11.73;;;4.63;;
73650;SDS011;61944;52.538;6.108;2023-03-14T06:12:55;10.60;;;4.82;;
73650;SDS011;61944;52.538;6.108;2023-03-14T06:15:21;14.77;;;4.85;;
73650;SDS011;61944;52.538;6.108;2023-03-14T06:17:47;12.73;;;5.90;;
73650;SDS011;61944;52.538;6.108;2023-03-14T06:20:12;11.45;;;6.15;;
73650;SDS011;61944;52.538;6.108;2023-03-14T06:22:38;11.52;;;5.13;;
73650;SDS011;61944;52.538;6.108;2023-03-14T06:25:04;8.55;;;4.75;;
73650;SDS011;61944;52.538;6.108;2023-03-14T06:27:30;10.27;;;4.35;;
73650;SDS011;61944;52.538;6.108;2023-03-14T06:29:55;13.68;;;5.93;;
73650;SDS011;61944;52.538;6.108;2023-03-14T06:32:21;10.20;;;5.03;;
73650;SDS011;61944;52.538;6.108;2023-03-14T06:34:46;10.32;;;4.13;;
73650;SDS011;61944;52.538;6.108;2023-03-14T06:37:11;10.77;;;4.57;;
73650;SDS011;61944;52.538;6.108;2023-03-14T06:39:37;10.65;;;4.35;;
73650;SDS011;61944;52.538;6.108;2023-03-14T06:42:03;7.53;;;4.70;;
73650;SDS011;61944;52.538;6.108;2023-03-14T06:44:29;9.95;;;4.38;;
73650;SDS011;61944;52.538;6.108;2023-03-14T06:46:55;12.10;;;4.85;;
73650;SDS011;61944;52.538;6.108;2023-03-14T06:49:20;11.27;;;4.63;;
73650;SDS011;61944;52.538;6.108;2023-03-14T06:51:45;21.92;;;5.55;;
73650;SDS011;61944;52.538;6.108;2023-03-14T06:54:11;10.30;;;4.88;;
73650;SDS011;61944;52.538;6.108;2023-03-14T06:56:37;6.45;;;3.50;;
73650;SDS011;61944;52.538;6.108;2023-03-14T06:59:02;4.95;;;2.45;;
73650;SDS011;61944;52.538;6.108;2023-03-14T07:01:28;5.43;;;2.20;;
73650;SDS011;61944;52.538;6.108;2023-03-14T07:03:54;5.22;;;2.10;;
73650;SDS011;61944;52.538;6.108;2023-03-14T07:06:20;4.28;;;2.00;;
73650;SDS011;61944;52.538;6.108;2023-03-14T07:08:46;5.60;;;1.90;;
73650;SDS011;61944;52.538;6.108;2023-03-14T07:11:12;4.50;;;1.65;;
73650;SDS011;61944;52.538;6.108;2023-03-14T07:13:38;3.33;;;1.50;;
73650;SDS011;61944;52.538;6.108;2023-03-14T07:16:04;7.65;;;1.60;;
73650;SDS011;61944;52.538;6.108;2023-03-14T07:18:30;3.20;;;1.30;;
73650;SDS011;61944;52.538;6.108;2023-03-14T07:20:56;3.72;;;1.40;;
73650;SDS011;61944;52.538;6.108;2023-03-14T07:23:21;2.88;;;1.02;;
73650;SDS011;61944;52.538;6.108;2023-03-14T07:25:47;4.78;;;1.30;;
73650;SDS011;61944;52.538;6.108;2023-03-14T07:28:12;6.60;;;1.50;;
73650;SDS011;61944;52.538;6.108;2023-03-14T07:30:38;3.88;;;1.40;;
73650;SDS011;61944;52.538;6.108;2023-03-14T07:33:04;3.05;;;1.40;;
73650;SDS011;61944;52.538;6.108;2023-03-14T07:35:29;2.33;;;1.38;;
73650;SDS011;61944;52.538;6.108;2023-03-14T07:37:55;5.05;;;1.35;;
73650;SDS011;61944;52.538;6.108;2023-03-14T07:40:20;5.32;;;2.30;;
73650;SDS011;61944;52.538;6.108;2023-03-14T07:42:45;7.47;;;1.50;;
73650;SDS011;61944;52.538;6.108;2023-03-14T07:45:11;4.97;;;1.60;;
73650;SDS011;61944;52.538;6.108;2023-03-14T07:47:37;5.43;;;1.60;;
73650;SDS011;61944;52.538;6.108;2023-03-14T07:50:03;4.60;;;1.58;;
73650;SDS011;61944;52.538;6.108;2023-03-14T07:52:29;3.80;;;1.45;;
73650;SDS011;61944;52.538;6.108;2023-03-14T07:54:55;7.72;;;2.42;;
73650;SDS011;61944;52.538;6.108;2023-03-14T07:57:20;6.78;;;1.35;;
73650;SDS011;61944;52.538;6.108;2023-03-14T07:59:45;4.35;;;1.63;;
73650;SDS011;61944;52.538;6.108;2023-03-14T08:02:11;7.97;;;2.15;;
73650;SDS011;61944;52.538;6.108;2023-03-14T08:04:38;6.25;;;1.17;;
73650;SDS011;61944;52.538;6.108;2023-03-14T08:07:04;8.57;;;1.60;;
73650;SDS011;61944;52.538;6.108;2023-03-14T08:09:30;5.13;;;1.30;;
73650;SDS011;61944;52.538;6.108;2023-03-14T08:11:56;12.52;;;1.88;;
73650;SDS011;61944;52.538;6.108;2023-03-14T08:14:21;4.28;;;2.30;;
73650;SDS011;61944;52.538;6.108;2023-03-14T08:16:48;16.58;;;1.55;;
73650;SDS011;61944;52.538;6.108;2023-03-14T08:19:14;3.60;;;1.00;;
73650;SDS011;61944;52.538;6.108;2023-03-14T08:21:40;4.28;;;1.38;;
73650;SDS011;61944;52.538;6.108;2023-03-14T08:24:05;4.07;;;1.08;;
73650;SDS011;61944;52.538;6.108;2023-03-14T08:26:31;5.38;;;0.88;;
73650;SDS011;61944;52.538;6.108;2023-03-14T08:28:56;4.28;;;0.90;;
73650;SDS011;61944;52.538;6.108;2023-03-14T08:31:22;2.97;;;0.88;;
73650;SDS011;61944;52.538;6.108;2023-03-14T08:33:47;8.73;;;1.60;;
73650;SDS011;61944;52.538;6.108;2023-03-14T08:36:13;3.55;;;0.90;;
73650;SDS011;61944;52.538;6.108;2023-03-14T08:38:38;4.07;;;0.88;;
73650;SDS011;61944;52.538;6.108;2023-03-14T08:41:03;3.25;;;0.70;;
73650;SDS011;61944;52.538;6.108;2023-03-14T08:43:29;5.35;;;1.58;;
73650;SDS011;61944;52.538;6.108;2023-03-14T08:45:59;8.68;;;1.30;;
73650;SDS011;61944;52.538;6.108;2023-03-14T08:48:30;3.30;;;0.55;;
73650;SDS011;61944;52.538;6.108;2023-03-14T08:50:56;2.50;;;0.80;;
73650;SDS011;61944;52.538;6.108;2023-03-14T08:53:28;2.85;;;0.60;;
73650;SDS011;61944;52.538;6.108;2023-03-14T08:55:54;6.32;;;1.00;;
73650;SDS011;61944;52.538;6.108;2023-03-14T08:58:20;3.20;;;0.70;;
73650;SDS011;61944;52.538;6.108;2023-03-14T09:00:49;3.60;;;1.10;;
73650;SDS011;61944;52.538;6.108;2023-03-14T09:03:15;3.95;;;0.85;;
73650;SDS011;61944;52.538;6.108;2023-03-14T09:05:40;6.15;;;1.77;;
73650;SDS011;61944;52.538;6.108;2023-03-14T09:08:09;2.83;;;0.80;;
73650;SDS011;61944;52.538;6.108;2023-03-14T09:10:35;2.60;;;1.00;;
73650;SDS011;61944;52.538;6.108;2023-03-14T09:13:03;5.45;;;1.60;;
73650;SDS011;61944;52.538;6.108;2023-03-14T09:15:29;11.02;;;1.30;;
73650;SDS011;61944;52.538;6.108;2023-03-14T09:17:54;6.05;;;2.13;;
73650;SDS011;61944;52.538;6.108;2023-03-14T09:20:20;10.50;;;1.35;;
73650;SDS011;61944;52.538;6.108;2023-03-14T09:22:46;4.97;;;1.42;;
73650;SDS011;61944;52.538;6.108;2023-03-14T09:25:11;8.18;;;1.50;;
73650;SDS011;61944;52.538;6.108;2023-03-14T09:27:37;6.20;;;1.83;;
73650;SDS011;61944;52.538;6.108;2023-03-14T09:30:03;2.83;;;1.05;;
73650;SDS011;61944;52.538;6.108;2023-03-14T09:32:30;6.95;;;1.30;;
73650;SDS011;61944;52.538;6.108;2023-03-14T09:35:00;6.35;;;1.60;;
73650;SDS011;61944;52.538;6.108;2023-03-14T09:37:25;7.68;;;1.20;;
73650;SDS011;61944;52.538;6.108;2023-03-14T09:39:53;20.98;;;3.65;;
73650;SDS011;61944;52.538;6.108;2023-03-14T09:42:25;17.98;;;2.33;;
73650;SDS011;61944;52.538;6.108;2023-03-14T09:44:59;6.35;;;2.17;;
73650;SDS011;61944;52.538;6.108;2023-03-14T09:47:27;5.28;;;1.45;;
73650;SDS011;61944;52.538;6.108;2023-03-14T09:49:56;8.77;;;1.60;;
73650;SDS011;61944;52.538;6.108;2023-03-14T09:52:31;16.13;;;3.40;;
73650;SDS011;61944;52.538;6.108;2023-03-14T09:55:05;8.18;;;2.45;;
73650;SDS011;61944;52.538;6.108;2023-03-14T09:57:40;16.65;;;3.72;;
73650;SDS011;61944;52.538;6.108;2023-03-14T10:00:12;16.73;;;3.05;;
73650;SDS011;61944;52.538;6.108;2023-03-14T10:05:49;12.85;;;2.78;;
73650;SDS011;61944;52.538;6.108;2023-03-14T10:08:15;13.50;;;3.03;;
73650;SDS011;61944;52.538;6.108;2023-03-14T10:10:41;18.40;;;3.83;;
73650;SDS011;61944;52.538;6.108;2023-03-14T10:13:23;18.58;;;3.22;;
73650;SDS011;61944;52.538;6.108;2023-03-14T10:15:53;11.90;;;3.20;;
73650;SDS011;61944;52.538;6.108;2023-03-14T10:18:21;18.42;;;2.80;;
73650;SDS011;61944;52.538;6.108;2023-03-14T10:20:49;16.30;;;4.32;;
73650;SDS011;61944;52.538;6.108;2023-03-14T10:23:27;16.20;;;3.08;;
73650;SDS011;61944;52.538;6.108;2023-03-14T10:25:59;14.73;;;2.83;;
73650;SDS011;61944;52.538;6.108;2023-03-14T10:28:42;19.63;;;3.03;;
73650;SDS011;61944;52.538;6.108;2023-03-14T10:33:38;18.27;;;4.03;;
73650;SDS011;61944;52.538;6.108;2023-03-14T10:38:50;25.88;;;4.40;;
73650;SDS011;61944;52.538;6.108;2023-03-14T10:41:24;21.48;;;4.32;;
73650;SDS011;61944;52.538;6.108;2023-03-14T10:43:51;16.77;;;3.65;;
73650;SDS011;61944;52.538;6.108;2023-03-14T10:46:23;15.80;;;4.15;;
73650;SDS011;61944;52.538;6.108;2023-03-14T10:48:51;17.38;;;3.08;;
73650;SDS011;61944;52.538;6.108;2023-03-14T10:51:26;12.82;;;3.22;;
73650;SDS011;61944;52.538;6.108;2023-03-14T10:56:58;18.92;;;2.78;;
73650;SDS011;61944;52.538;6.108;2023-03-14T10:59:29;16.48;;;3.78;;
73650;SDS011;61944;52.538;6.108;2023-03-14T11:05:02;20.85;;;4.57;;
73650;SDS011;61944;52.538;6.108;2023-03-14T11:07:40;17.85;;;2.90;;
73650;SDS011;61944;52.538;6.108;2023-03-14T11:10:10;18.25;;;4.13;;
73650;SDS011;61944;52.538;6.108;2023-03-14T11:12:47;15.40;;;4.00;;
73650;SDS011;61944;52.538;6.108;2023-03-14T11:15:46;17.83;;;3.03;;
73650;SDS011;61944;52.538;6.108;2023-03-14T11:26:33;20.58;;;4.15;;
73650;SDS011;61944;52.538;6.108;2023-03-14T11:29:07;13.25;;;5.35;;
73650;SDS011;61944;52.538;6.108;2023-03-14T11:31:43;13.23;;;2.97;;
73650;SDS011;61944;52.538;6.108;2023-03-14T11:36:40;19.10;;;2.72;;
73650;SDS011;61944;52.538;6.108;2023-03-14T11:39:13;12.13;;;2.05;;
73650;SDS011;61944;52.538;6.108;2023-03-14T11:41:41;13.48;;;2.60;;
73650;SDS011;61944;52.538;6.108;2023-03-14T11:44:20;9.82;;;3.35;;
73650;SDS011;61944;52.538;6.108;2023-03-14T11:46:57;8.23;;;2.42;;
73650;SDS011;61944;52.538;6.108;2023-03-14T11:52:05;9.27;;;1.80;;
73650;SDS011;61944;52.538;6.108;2023-03-14T11:54:42;10.57;;;2.55;;
73650;SDS011;61944;52.538;6.108;2023-03-14T11:57:18;8.18;;;2.78;;
73650;SDS011;61944;52.538;6.108;2023-03-14T11:59:47;8.85;;;2.20;;
73650;SDS011;61944;52.538;6.108;2023-03-14T12:02:27;9.82;;;2.25;;
73650;SDS011;61944;52.538;6.108;2023-03-14T12:05:19;9.65;;;2.70;;
73650;SDS011;61944;52.538;6.108;2023-03-14T12:10:49;10.05;;;2.00;;
73650;SDS011;61944;52.538;6.108;2023-03-14T12:13:18;12.23;;;2.40;;
73650;SDS011;61944;52.538;6.108;2023-03-14T12:15:49;13.25;;;2.03;;
73650;SDS011;61944;52.538;6.108;2023-03-14T12:18:20;12.85;;;2.90;;
73650;SDS011;61944;52.538;6.108;2023-03-14T12:21:19;11.95;;;3.25;;
73650;SDS011;61944;52.538;6.108;2023-03-14T12:23:42;12.27;;;1.77;;
73650;SDS011;61944;52.538;6.108;2023-03-14T12:28:42;12.27;;;2.45;;
73650;SDS011;61944;52.538;6.108;2023-03-14T12:34:02;10.43;;;1.90;;
73650;SDS011;61944;52.538;6.108;2023-03-14T12:44:50;9.45;;;2.10;;
73650;SDS011;61944;52.538;6.108;2023-03-14T12:49:41;6.13;;;1.90;;
73650;SDS011;61944;52.538;6.108;2023-03-14T12:52:13;8.30;;;1.38;;
73650;SDS011;61944;52.538;6.108;2023-03-14T12:54:45;4.75;;;1.67;;
73650;SDS011;61944;52.538;6.108;2023-03-14T13:02:43;5.72;;;1.80;;
73650;SDS011;61944;52.538;6.108;2023-03-14T13:05:14;3.40;;;1.30;;
73650;SDS011;61944;52.538;6.108;2023-03-14T13:10:22;6.80;;;1.55;;
73650;SDS011;61944;52.538;6.108;2023-03-14T13:12:54;8.00;;;2.70;;
73650;SDS011;61944;52.538;6.108;2023-03-14T13:15:54;6.43;;;1.77;;
73650;SDS011;61944;52.538;6.108;2023-03-14T13:18:14;10.90;;;1.63;;
73650;SDS011;61944;52.538;6.108;2023-03-14T13:20:44;10.93;;;2.42;;
73650;SDS011;61944;52.538;6.108;2023-03-14T13:23:20;7.60;;;2.28;;
73650;SDS011;61944;52.538;6.108;2023-03-14T13:25:50;6.40;;;2.15;;
73650;SDS011;61944;52.538;6.108;2023-03-14T13:28:16;7.68;;;1.98;;
73650;SDS011;61944;52.538;6.108;2023-03-14T13:30:43;6.00;;;1.40;;
73650;SDS011;61944;52.538;6.108;2023-03-14T13:33:17;8.07;;;1.85;;
73650;SDS011;61944;52.538;6.108;2023-03-14T13:35:45;8.82;;;2.60;;
73650;SDS011;61944;52.538;6.108;2023-03-14T13:38:23;7.30;;;2.08;;
73650;SDS011;61944;52.538;6.108;2023-03-14T13:40:51;7.50;;;2.60;;
73650;SDS011;61944;52.538;6.108;2023-03-14T13:43:25;7.28;;;2.22;;
73650;SDS011;61944;52.538;6.108;2023-03-14T13:46:00;10.07;;;1.85;;
73650;SDS011;61944;52.538;6.108;2023-03-14T13:48:31;8.38;;;1.40;;
73650;SDS011;61944;52.538;6.108;2023-03-14T13:51:04;5.53;;;2.10;;
73650;SDS011;61944;52.538;6.108;2023-03-14T13:53:32;11.52;;;1.73;;
73650;SDS011;61944;52.538;6.108;2023-03-14T13:56:08;8.98;;;1.85;;
73650;SDS011;61944;52.538;6.108;2023-03-14T13:58:36;8.45;;;2.55;;
73650;SDS011;61944;52.538;6.108;2023-03-14T14:01:10;10.70;;;2.65;;
73650;SDS011;61944;52.538;6.108;2023-03-14T14:03:57;13.88;;;2.00;;
73650;SDS011;61944;52.538;6.108;2023-03-14T14:06:34;27.67;;;3.63;;
73650;SDS011;61944;52.538;6.108;2023-03-14T14:09:02;18.48;;;4.97;;
73650;SDS011;61944;52.538;6.108;2023-03-14T14:11:41;11.48;;;3.28;;
73650;SDS011;61944;52.538;6.108;2023-03-14T14:14:12;13.32;;;3.30;;
73650;SDS011;61944;52.538;6.108;2023-03-14T14:16:43;7.13;;;1.58;;
73650;SDS011;61944;52.538;6.108;2023-03-14T14:19:09;10.13;;;1.98;;
73650;SDS011;61944;52.538;6.108;2023-03-14T14:21:36;9.32;;;1.55;;
73650;SDS011;61944;52.538;6.108;2023-03-14T14:24:01;9.50;;;1.50;;
73650;SDS011;61944;52.538;6.108;2023-03-14T14:26:27;5.95;;;1.35;;
73650;SDS011;61944;52.538;6.108;2023-03-14T14:28:58;11.88;;;2.80;;
73650;SDS011;61944;52.538;6.108;2023-03-14T14:31:24;9.15;;;1.77;;
73650;SDS011;61944;52.538;6.108;2023-03-14T14:36:23;10.98;;;1.50;;
73650;SDS011;61944;52.538;6.108;2023-03-14T14:38:52;6.18;;;2.03;;
73650;SDS011;61944;52.538;6.108;2023-03-14T14:41:22;7.13;;;1.33;;
73650;SDS011;61944;52.538;6.108;2023-03-14T14:43:52;8.82;;;1.45;;
73650;SDS011;61944;52.538;6.108;2023-03-14T14:46:18;7.97;;;1.42;;
73650;SDS011;61944;52.538;6.108;2023-03-14T14:48:44;9.18;;;2.00;;
73650;SDS011;61944;52.538;6.108;2023-03-14T14:51:21;5.80;;;1.55;;
73650;SDS011;61944;52.538;6.108;2023-03-14T14:53:48;13.27;;;2.13;;
73650;SDS011;61944;52.538;6.108;2023-03-14T14:56:17;10.75;;;2.05;;
73650;SDS011;61944;52.538;6.108;2023-03-14T14:58:47;9.50;;;1.88;;
73650;SDS011;61944;52.538;6.108;2023-03-14T15:01:17;10.82;;;1.83;;
73650;SDS011;61944;52.538;6.108;2023-03-14T15:03:46;9.23;;;1.92;;
73650;SDS011;61944;52.538;6.108;2023-03-14T15:06:14;7.47;;;1.80;;
73650;SDS011;61944;52.538;6.108;2023-03-14T15:08:42;12.10;;;2.25;;
73650;SDS011;61944;52.538;6.108;2023-03-14T15:11:16;12.20;;;2.15;;
73650;SDS011;61944;52.538;6.108;2023-03-14T15:13:43;13.57;;;1.98;;
73650;SDS011;61944;52.538;6.108;2023-03-14T15:16:12;10.90;;;1.67;;
73650;SDS011;61944;52.538;6.108;2023-03-14T15:18:40;10.98;;;2.88;;
73650;SDS011;61944;52.538;6.108;2023-03-14T15:21:08;10.30;;;1.88;;
73650;SDS011;61944;52.538;6.108;2023-03-14T15:23:34;11.35;;;1.98;;
73650;SDS011;61944;52.538;6.108;2023-03-14T15:26:00;3.90;;;1.63;;
73650;SDS011;61944;52.538;6.108;2023-03-14T15:28:26;5.35;;;1.60;;
73650;SDS011;61944;52.538;6.108;2023-03-14T15:30:55;11.27;;;2.53;;
73650;SDS011;61944;52.538;6.108;2023-03-14T15:33:22;8.57;;;1.98;;
73650;SDS011;61944;52.538;6.108;2023-03-14T15:35:49;4.40;;;1.98;;
73650;SDS011;61944;52.538;6.108;2023-03-14T15:38:16;8.30;;;1.58;;
73650;SDS011;61944;52.538;6.108;2023-03-14T15:40:46;7.85;;;2.58;;
73650;SDS011;61944;52.538;6.108;2023-03-14T15:43:12;10.18;;;2.00;;
73650;SDS011;61944;52.538;6.108;2023-03-14T15:45:37;7.47;;;1.92;;
73650;SDS011;61944;52.538;6.108;2023-03-14T15:48:06;6.15;;;1.17;;
73650;SDS011;61944;52.538;6.108;2023-03-14T15:50:37;6.10;;;1.38;;